createdAt,value
2022-12-13T00:00:11.485Z,1002.99
2022-12-13T00:01:11.443Z,1003.00
2022-12-13T00:02:11.440Z,1002.99
2022-12-13T00:03:11.358Z,1002.94
2022-12-13T00:04:11.349Z,1002.97
2022-12-13T00:05:11.640Z,1002.98
2022-12-13T00:06:11.227Z,1002.99
2022-12-13T00:07:11.190Z,1002.99
2022-12-13T00:08:11.164Z,1002.95
2022-12-13T00:09:11.118Z,1002.95
2022-12-13T00:10:11.061Z,1002.96
2022-12-13T00:11:11.013Z,1002.97
2022-12-13T00:12:10.977Z,1002.98
2022-12-13T00:13:10.928Z,1002.94
2022-12-13T00:14:10.889Z,1002.97
2022-12-13T00:15:10.921Z,1002.97
2022-12-13T00:16:10.841Z,1002.95
2022-12-13T00:17:10.755Z,1002.96
2022-12-13T00:18:10.712Z,1002.93
2022-12-13T00:19:10.671Z,1002.93
2022-12-13T00:20:10.626Z,1002.93
2022-12-13T00:21:10.588Z,1002.94
2022-12-13T00:22:10.543Z,1002.94
2022-12-13T00:23:10.504Z,1002.99
2022-12-13T00:24:10.456Z,1002.97
2022-12-13T00:25:10.407Z,1002.99
2022-12-13T00:26:10.364Z,1002.96
2022-12-13T00:27:10.322Z,1002.98
2022-12-13T00:28:10.278Z,1002.97
2022-12-13T00:29:10.235Z,1002.97
2022-12-13T00:30:10.203Z,1002.97
2022-12-13T00:31:51.251Z,1002.93
2022-12-13T00:32:10.168Z,1002.95
2022-12-13T00:33:10.063Z,1002.93
2022-12-13T00:34:10.035Z,1002.91
2022-12-13T00:35:09.981Z,1002.92
2022-12-13T00:36:09.939Z,1002.88
2022-12-13T00:37:09.896Z,1002.90
2022-12-13T00:38:09.858Z,1002.91
2022-12-13T00:39:09.807Z,1002.89
2022-12-13T00:40:09.771Z,1002.93
2022-12-13T00:41:09.721Z,1002.92
2022-12-13T00:42:09.677Z,1002.93
2022-12-13T00:43:09.635Z,1002.96
2022-12-13T00:44:09.593Z,1002.98
2022-12-13T00:45:09.553Z,1002.97
2022-12-13T00:46:09.580Z,1002.96
2022-12-13T00:47:09.468Z,1002.97
2022-12-13T00:48:09.422Z,1002.94
2022-12-13T00:49:09.374Z,1002.97
2022-12-13T00:50:09.333Z,1002.99
2022-12-13T00:51:09.294Z,1002.98
2022-12-13T00:52:09.244Z,1002.98
2022-12-13T00:53:09.200Z,1003.00
2022-12-13T00:54:09.163Z,1002.96
2022-12-13T00:55:09.117Z,1002.96
2022-12-13T00:56:09.082Z,1003.01
2022-12-13T00:57:09.033Z,1002.99
2022-12-13T00:58:09.014Z,1002.97
2022-12-13T00:59:08.945Z,1003.01
2022-12-13T01:00:08.904Z,1003.01
2022-12-13T01:01:08.903Z,1003.01
2022-12-13T01:02:08.820Z,1002.99
2022-12-13T01:03:08.926Z,1002.97
2022-12-13T01:04:08.733Z,1002.97
2022-12-13T01:05:08.691Z,1002.97
2022-12-13T01:06:16.812Z,1002.94
2022-12-13T01:07:08.601Z,1002.93
2022-12-13T01:08:08.605Z,1002.89
2022-12-13T01:09:08.514Z,1002.89
2022-12-13T01:10:08.475Z,1002.89
2022-12-13T01:11:08.432Z,1002.86
2022-12-13T01:12:08.389Z,1002.83
2022-12-13T01:13:08.344Z,1002.81
2022-12-13T01:14:08.301Z,1002.82
2022-12-13T01:15:08.260Z,1002.77
2022-12-13T01:16:08.217Z,1002.77
2022-12-13T01:17:08.281Z,1002.76
2022-12-13T01:18:08.132Z,1002.74
2022-12-13T01:19:08.088Z,1002.72
2022-12-13T01:20:08.039Z,1002.74
2022-12-13T01:21:08.000Z,1002.73
2022-12-13T01:22:07.954Z,1002.76
2022-12-13T01:23:07.915Z,1002.73
2022-12-13T01:24:07.868Z,1002.77
2022-12-13T01:25:07.830Z,1002.79
2022-12-13T01:26:07.786Z,1002.76
2022-12-13T01:27:07.745Z,1002.80
2022-12-13T01:28:07.704Z,1002.81
2022-12-13T01:29:07.667Z,1002.82
2022-12-13T01:30:07.611Z,1002.81
2022-12-13T01:31:07.627Z,1002.83
2022-12-13T01:32:07.530Z,1002.82
2022-12-13T01:33:14.159Z,1002.85
2022-12-13T01:34:07.481Z,1002.88
2022-12-13T01:35:07.404Z,1002.88
2022-12-13T01:36:07.358Z,1002.83
2022-12-13T01:37:07.309Z,1002.87
2022-12-13T01:38:15.440Z,1002.86
2022-12-13T01:39:14.493Z,1002.86
2022-12-13T01:40:15.965Z,1002.87
2022-12-13T01:41:17.073Z,1002.85
2022-12-13T01:42:07.099Z,1002.86
2022-12-13T01:43:14.336Z,1002.83
2022-12-13T01:44:07.014Z,1002.81
2022-12-13T01:45:06.969Z,1002.84
2022-12-13T01:46:06.934Z,1002.83
2022-12-13T01:47:06.883Z,1002.83
2022-12-13T01:48:06.842Z,1002.82
2022-12-13T01:49:20.067Z,1002.85
2022-12-13T01:50:06.752Z,1002.84
2022-12-13T01:51:06.717Z,1002.84
2022-12-13T01:52:06.663Z,1002.85
2022-12-13T01:53:06.626Z,1002.84
2022-12-13T01:54:06.577Z,1002.85
2022-12-13T01:55:06.539Z,1002.82
2022-12-13T01:56:06.495Z,1002.82
2022-12-13T01:57:06.453Z,1002.83
2022-12-13T01:58:06.411Z,1002.81
2022-12-13T01:59:06.366Z,1002.78
2022-12-13T02:00:06.321Z,1002.84
2022-12-13T02:01:06.368Z,1002.83
2022-12-13T02:02:06.239Z,1002.77
2022-12-13T02:03:06.197Z,1002.78
2022-12-13T02:04:06.149Z,1002.79
2022-12-13T02:05:06.154Z,1002.77
2022-12-13T02:06:06.068Z,1002.78
2022-12-13T02:07:06.020Z,1002.80
2022-12-13T02:08:06.001Z,1002.79
2022-12-13T02:09:05.945Z,1002.80
2022-12-13T02:10:05.895Z,1002.79
2022-12-13T02:11:05.858Z,1002.78
2022-12-13T02:12:05.810Z,1002.76
2022-12-13T02:13:05.771Z,1002.81
2022-12-13T02:14:05.727Z,1002.78
2022-12-13T02:15:05.684Z,1002.81
2022-12-13T02:16:05.682Z,1002.78
2022-12-13T02:17:05.600Z,1002.82
2022-12-13T02:18:05.550Z,1002.80
2022-12-13T02:19:05.505Z,1002.80
2022-12-13T02:20:05.466Z,1002.80
2022-12-13T02:21:05.416Z,1002.83
2022-12-13T02:22:05.384Z,1002.82
2022-12-13T02:23:05.332Z,1002.82
2022-12-13T02:24:09.126Z,1002.79
2022-12-13T02:25:05.248Z,1002.81
2022-12-13T02:26:05.205Z,1002.78
2022-12-13T02:27:05.186Z,1002.78
2022-12-13T02:28:05.121Z,1002.76
2022-12-13T02:29:05.079Z,1002.80
2022-12-13T02:30:05.029Z,1002.80
2022-12-13T02:31:05.007Z,1002.84
2022-12-13T02:32:04.945Z,1002.84
2022-12-13T02:33:04.899Z,1002.85
2022-12-13T02:34:04.857Z,1002.80
2022-12-13T02:35:04.819Z,1002.82
2022-12-13T02:36:04.769Z,1002.78
2022-12-13T02:37:04.735Z,1002.82
2022-12-13T02:38:04.687Z,1002.82
2022-12-13T02:39:04.647Z,1002.82
2022-12-13T02:40:04.601Z,1002.79
2022-12-13T02:41:04.556Z,1002.81
2022-12-13T02:42:04.519Z,1002.81
2022-12-13T02:43:04.469Z,1002.74
2022-12-13T02:44:04.426Z,1002.78
2022-12-13T02:45:04.386Z,1002.73
2022-12-13T02:46:04.411Z,1002.73
2022-12-13T02:47:04.294Z,1002.76
2022-12-13T02:48:04.270Z,1002.75
2022-12-13T02:49:04.214Z,1002.73
2022-12-13T02:50:04.167Z,1002.77
2022-12-13T02:51:04.125Z,1002.69
2022-12-13T02:52:04.082Z,1002.74
2022-12-13T02:53:04.044Z,1002.73
2022-12-13T02:54:04.003Z,1002.73
2022-12-13T02:55:03.956Z,1002.72
2022-12-13T02:56:03.911Z,1002.70
2022-12-13T02:57:03.869Z,1002.67
2022-12-13T02:58:03.825Z,1002.65
2022-12-13T02:59:03.780Z,1002.64
2022-12-13T03:00:03.740Z,1002.65
2022-12-13T03:01:03.697Z,1002.61
2022-12-13T03:02:10.125Z,1002.63
2022-12-13T03:03:03.759Z,1002.64
2022-12-13T03:04:03.567Z,1002.64
2022-12-13T03:05:03.520Z,1002.63
2022-12-13T03:06:03.483Z,1002.65
2022-12-13T03:07:03.447Z,1002.62
2022-12-13T03:08:03.409Z,1002.64
2022-12-13T03:09:03.348Z,1002.63
2022-12-13T03:10:03.322Z,1002.63
2022-12-13T03:11:03.266Z,1002.62
2022-12-13T03:12:03.221Z,1002.63
2022-12-13T03:13:03.177Z,1002.62
2022-12-13T03:14:03.136Z,1002.65
2022-12-13T03:15:03.090Z,1002.67
2022-12-13T03:16:03.071Z,1002.64
2022-12-13T03:17:03.004Z,1002.69
2022-12-13T03:18:02.962Z,1002.69
2022-12-13T03:19:02.924Z,1002.66
2022-12-13T03:20:02.875Z,1002.67
2022-12-13T03:21:02.836Z,1002.65
2022-12-13T03:22:02.788Z,1002.66
2022-12-13T03:23:02.745Z,1002.66
2022-12-13T03:24:02.705Z,1002.64
2022-12-13T03:25:02.663Z,1002.64
2022-12-13T03:26:02.621Z,1002.64
2022-12-13T03:27:02.571Z,1002.64
2022-12-13T03:28:02.975Z,1002.66
2022-12-13T03:29:02.491Z,1002.67
2022-12-13T03:30:02.449Z,1002.67
2022-12-13T03:31:02.428Z,1002.70
2022-12-13T03:32:02.360Z,1002.69
2022-12-13T03:33:02.317Z,1002.73
2022-12-13T03:34:02.268Z,1002.73
2022-12-13T03:35:02.238Z,1002.72
2022-12-13T03:36:02.187Z,1002.75
2022-12-13T03:37:02.140Z,1002.73
2022-12-13T03:38:02.098Z,1002.74
2022-12-13T03:39:02.056Z,1002.69
2022-12-13T03:40:02.013Z,1002.69
2022-12-13T03:41:01.968Z,1002.70
2022-12-13T03:42:01.928Z,1002.71
2022-12-13T03:43:01.882Z,1002.71
2022-12-13T03:44:01.840Z,1002.70
2022-12-13T03:45:01.804Z,1002.66
2022-12-13T03:46:01.833Z,1002.72
2022-12-13T03:47:01.708Z,1002.68
2022-12-13T03:48:01.666Z,1002.72
2022-12-13T03:49:01.624Z,1002.74
2022-12-13T03:50:25.284Z,1002.74
2022-12-13T03:51:01.544Z,1002.71
2022-12-13T03:52:01.493Z,1002.71
2022-12-13T03:53:01.452Z,1002.72
2022-12-13T03:54:01.409Z,1002.71
2022-12-13T03:55:01.395Z,1002.73
2022-12-13T03:56:01.680Z,1002.70
2022-12-13T03:57:01.282Z,1002.73
2022-12-13T03:58:07.540Z,1002.71
2022-12-13T03:59:01.194Z,1002.71
2022-12-13T04:00:01.143Z,1002.68
2022-12-13T04:01:01.122Z,1002.69
2022-12-13T04:02:01.106Z,1002.72
2022-12-13T04:03:01.082Z,1002.71
2022-12-13T04:04:00.976Z,1002.73
2022-12-13T04:05:01.019Z,1002.72
2022-12-13T04:06:00.893Z,1002.72
2022-12-13T04:07:00.862Z,1002.71
2022-12-13T04:08:01.201Z,1002.70
2022-12-13T04:09:00.762Z,1002.73
2022-12-13T04:10:00.710Z,1002.72
2022-12-13T04:11:00.671Z,1002.71
2022-12-13T04:12:00.628Z,1002.70
2022-12-13T04:13:00.658Z,1002.70
2022-12-13T04:14:00.543Z,1002.64
2022-12-13T04:15:00.510Z,1002.68
2022-12-13T04:16:00.505Z,1002.64
2022-12-13T04:17:00.407Z,1002.64
2022-12-13T04:18:00.373Z,1002.61
2022-12-13T04:19:00.323Z,1002.62
2022-12-13T04:20:00.280Z,1002.61
2022-12-13T04:21:00.247Z,1002.63
2022-12-13T04:22:00.195Z,1002.67
2022-12-13T04:23:00.155Z,1002.63
2022-12-13T04:24:00.983Z,1002.67
2022-12-13T04:25:00.076Z,1002.65
2022-12-13T04:26:00.028Z,1002.65
2022-12-13T04:27:00.693Z,1002.66
2022-12-13T04:27:59.938Z,1002.67
2022-12-13T04:28:59.894Z,1002.65
2022-12-13T04:29:59.852Z,1002.69
2022-12-13T04:30:59.808Z,1002.63
2022-12-13T04:31:59.766Z,1002.64
2022-12-13T04:32:59.721Z,1002.62
2022-12-13T04:33:59.675Z,1002.63
2022-12-13T04:35:00.944Z,1002.60
2022-12-13T04:35:59.588Z,1002.63
2022-12-13T04:36:59.548Z,1002.63
2022-12-13T04:37:59.505Z,1002.61
2022-12-13T04:39:00.629Z,1002.63
2022-12-13T04:40:00.949Z,1002.59
2022-12-13T04:40:59.384Z,1002.62
2022-12-13T04:41:59.332Z,1002.63
2022-12-13T04:42:59.287Z,1002.60
2022-12-13T04:43:59.249Z,1002.60
2022-12-13T04:44:59.206Z,1002.56
2022-12-13T04:45:59.246Z,1002.55
2022-12-13T04:47:01.333Z,1002.54
2022-12-13T04:47:59.078Z,1002.49
2022-12-13T04:48:59.031Z,1002.53
2022-12-13T04:49:58.985Z,1002.54
2022-12-13T04:50:58.946Z,1002.54
2022-12-13T04:52:01.329Z,1002.53
2022-12-13T04:52:58.857Z,1002.52
2022-12-13T04:54:24.283Z,1002.54
2022-12-13T04:54:58.773Z,1002.56
2022-12-13T04:55:58.735Z,1002.54
2022-12-13T04:56:58.690Z,1002.53
2022-12-13T04:57:58.649Z,1002.52
2022-12-13T04:58:58.613Z,1002.51
2022-12-13T04:59:58.560Z,1002.50
2022-12-13T05:00:58.577Z,1002.46
2022-12-13T05:01:58.548Z,1002.44
2022-12-13T05:02:58.433Z,1002.44
2022-12-13T05:03:58.397Z,1002.47
2022-12-13T05:04:58.344Z,1002.41
2022-12-13T05:05:58.302Z,1002.38
2022-12-13T05:06:58.273Z,1002.37
2022-12-13T05:07:58.279Z,1002.34
2022-12-13T05:09:00.594Z,1002.32
2022-12-13T05:09:58.129Z,1002.33
2022-12-13T05:10:58.084Z,1002.35
2022-12-13T05:12:01.463Z,1002.32
2022-12-13T05:12:57.999Z,1002.32
2022-12-13T05:13:57.957Z,1002.34
2022-12-13T05:14:57.919Z,1002.34
2022-12-13T05:15:57.873Z,1002.34
2022-12-13T05:16:57.883Z,1002.36
2022-12-13T05:17:57.794Z,1002.36
2022-12-13T05:18:57.745Z,1002.35
2022-12-13T05:19:57.705Z,1002.37
2022-12-13T05:20:57.655Z,1002.35
2022-12-13T05:21:57.614Z,1002.34
2022-12-13T05:22:57.577Z,1002.34
2022-12-13T05:23:57.532Z,1002.27
2022-12-13T05:24:57.487Z,1002.29
2022-12-13T05:25:57.446Z,1002.31
2022-12-13T05:26:57.406Z,1002.30
2022-12-13T05:27:57.360Z,1002.31
2022-12-13T05:28:57.314Z,1002.35
2022-12-13T05:30:03.035Z,1002.27
2022-12-13T05:30:57.230Z,1002.29
2022-12-13T05:31:57.270Z,1002.27
2022-12-13T05:32:57.145Z,1002.24
2022-12-13T05:34:01.318Z,1002.27
2022-12-13T05:34:57.069Z,1002.27
2022-12-13T05:36:00.625Z,1002.23
2022-12-13T05:36:56.967Z,1002.25
2022-12-13T05:37:56.930Z,1002.28
2022-12-13T05:38:56.913Z,1002.29
2022-12-13T05:39:56.848Z,1002.26
2022-12-13T05:40:56.802Z,1002.27
2022-12-13T05:42:02.049Z,1002.26
2022-12-13T05:43:01.579Z,1002.19
2022-12-13T05:43:56.673Z,1002.20
2022-12-13T05:44:56.627Z,1002.18
2022-12-13T05:45:56.637Z,1002.18
2022-12-13T05:46:56.567Z,1002.16
2022-12-13T05:47:56.504Z,1002.18
2022-12-13T05:48:56.477Z,1002.25
2022-12-13T05:49:56.420Z,1002.23
2022-12-13T05:51:09.780Z,1002.23
2022-12-13T05:51:56.325Z,1002.24
2022-12-13T05:52:56.289Z,1002.21
2022-12-13T05:53:56.242Z,1002.20
2022-12-13T05:54:56.200Z,1002.18
2022-12-13T05:55:56.151Z,1002.13
2022-12-13T05:56:56.121Z,1002.13
2022-12-13T05:58:02.296Z,1002.12
2022-12-13T05:58:56.029Z,1002.14
2022-12-13T05:59:55.987Z,1002.11
2022-12-13T06:00:55.944Z,1002.20
2022-12-13T06:01:55.967Z,1002.13
2022-12-13T06:02:55.953Z,1002.16
2022-12-13T06:03:55.882Z,1002.13
2022-12-13T06:04:55.769Z,1002.19
2022-12-13T06:05:55.729Z,1002.23
2022-12-13T06:06:55.688Z,1002.23
2022-12-13T06:07:57.593Z,1002.20
2022-12-13T06:08:55.611Z,1002.25
2022-12-13T06:09:55.557Z,1002.21
2022-12-13T06:10:55.514Z,1002.20
2022-12-13T06:12:01.158Z,1002.19
2022-12-13T06:12:55.426Z,1002.16
2022-12-13T06:14:01.035Z,1002.13
2022-12-13T06:15:00.824Z,1002.09
2022-12-13T06:16:01.254Z,1002.07
2022-12-13T06:16:55.335Z,1002.05
2022-12-13T06:17:55.256Z,1002.06
2022-12-13T06:19:03.196Z,1002.04
2022-12-13T06:19:55.131Z,1002.03
2022-12-13T06:20:55.084Z,1002.06
2022-12-13T06:21:55.044Z,1002.07
2022-12-13T06:22:55.079Z,1002.07
2022-12-13T06:23:54.955Z,1002.08
2022-12-13T06:24:54.912Z,1002.10
2022-12-13T06:25:54.869Z,1002.11
2022-12-13T06:26:54.827Z,1002.11
2022-12-13T06:27:54.790Z,1002.12
2022-12-13T06:28:54.744Z,1002.13
2022-12-13T06:29:56.811Z,1002.12
2022-12-13T06:30:54.671Z,1002.09
2022-12-13T06:31:54.609Z,1002.12
2022-12-13T06:32:54.572Z,1002.13
2022-12-13T06:33:54.523Z,1002.07
2022-12-13T06:34:54.479Z,1002.08
2022-12-13T06:35:54.440Z,1002.11
2022-12-13T06:36:54.411Z,1002.13
2022-12-13T06:37:54.353Z,1002.14
2022-12-13T06:38:54.309Z,1002.14
2022-12-13T06:39:54.266Z,1002.09
2022-12-13T06:40:54.225Z,1002.12
2022-12-13T06:41:54.179Z,1002.11
2022-12-13T06:42:54.153Z,1002.12
2022-12-13T06:43:54.095Z,1002.11
2022-12-13T06:44:55.689Z,1002.11
2022-12-13T06:45:54.074Z,1002.08
2022-12-13T06:46:53.965Z,1002.09
2022-12-13T06:47:53.925Z,1002.09
2022-12-13T06:48:53.880Z,1002.12
2022-12-13T06:49:53.839Z,1002.12
2022-12-13T06:50:53.791Z,1002.13
2022-12-13T06:51:53.753Z,1002.12
2022-12-13T06:52:53.706Z,1002.15
2022-12-13T06:53:53.667Z,1002.15
2022-12-13T06:54:59.670Z,1002.14
2022-12-13T06:55:53.574Z,1002.13
2022-12-13T06:56:53.530Z,1002.13
2022-12-13T06:57:53.495Z,1002.10
2022-12-13T06:58:53.442Z,1002.14
2022-12-13T06:59:53.404Z,1002.09
2022-12-13T07:00:53.364Z,1002.08
2022-12-13T07:01:53.344Z,1002.08
2022-12-13T07:02:53.292Z,1002.04
2022-12-13T07:03:53.234Z,1002.03
2022-12-13T07:04:53.189Z,1002.07
2022-12-13T07:05:56.839Z,1002.05
2022-12-13T07:06:53.099Z,1002.04
2022-12-13T07:07:53.091Z,1002.07
2022-12-13T07:08:53.017Z,1002.10
2022-12-13T07:09:52.973Z,1002.10
2022-12-13T07:10:52.928Z,1002.11
2022-12-13T07:11:52.904Z,1002.12
2022-12-13T07:12:52.841Z,1002.16
2022-12-13T07:13:52.793Z,1002.14
2022-12-13T07:14:52.754Z,1002.10
2022-12-13T07:15:52.848Z,1002.15
2022-12-13T07:16:56.673Z,1002.12
2022-12-13T07:17:52.637Z,1002.13
2022-12-13T07:18:52.580Z,1002.15
2022-12-13T07:19:52.544Z,1002.14
2022-12-13T07:20:52.495Z,1002.13
2022-12-13T07:21:52.472Z,1002.15
2022-12-13T07:22:58.192Z,1002.15
2022-12-13T07:23:55.115Z,1002.14
2022-12-13T07:24:52.319Z,1002.13
2022-12-13T07:25:52.280Z,1002.12
2022-12-13T07:26:52.235Z,1002.09
2022-12-13T07:27:52.193Z,1002.11
2022-12-13T07:28:55.318Z,1002.06
2022-12-13T07:29:52.106Z,1002.05
2022-12-13T07:30:52.090Z,1002.08
2022-12-13T07:31:52.019Z,1002.06
2022-12-13T07:32:51.973Z,1002.06
2022-12-13T07:33:51.931Z,1002.07
2022-12-13T07:34:51.891Z,1002.05
2022-12-13T07:35:55.407Z,1002.05
2022-12-13T07:36:51.814Z,1002.06
2022-12-13T07:37:51.762Z,1002.08
2022-12-13T07:38:51.721Z,1002.06
2022-12-13T07:39:51.675Z,1002.05
2022-12-13T07:40:51.671Z,1002.05
2022-12-13T07:41:51.981Z,1002.03
2022-12-13T07:42:51.543Z,1002.03
2022-12-13T07:43:54.881Z,1002.02
2022-12-13T07:44:51.464Z,1002.00
2022-12-13T07:45:51.415Z,1002.00
2022-12-13T07:46:51.557Z,1001.95
2022-12-13T07:47:51.329Z,1001.99
2022-12-13T07:48:51.283Z,1001.98
2022-12-13T07:49:51.240Z,1002.00
2022-12-13T07:50:54.377Z,1002.03
2022-12-13T07:51:51.149Z,1002.02
2022-12-13T07:52:51.110Z,1002.06
2022-12-13T07:53:51.063Z,1002.07
2022-12-13T07:54:51.025Z,1002.04
2022-12-13T07:55:50.989Z,1002.05
2022-12-13T07:56:50.932Z,1002.02
2022-12-13T07:57:50.896Z,1002.06
2022-12-13T07:58:50.849Z,1002.06
2022-12-13T07:59:50.806Z,1002.08
2022-12-13T08:00:50.765Z,1002.10
2022-12-13T08:01:50.752Z,1002.12
2022-12-13T08:02:50.683Z,1002.14
2022-12-13T08:03:50.639Z,1002.16
2022-12-13T08:04:54.527Z,1002.20
2022-12-13T08:05:50.624Z,1002.18
2022-12-13T08:06:50.506Z,1002.21
2022-12-13T08:07:50.517Z,1002.19
2022-12-13T08:08:50.414Z,1002.20
2022-12-13T08:09:52.947Z,1002.22
2022-12-13T08:10:50.331Z,1002.21
2022-12-13T08:11:50.288Z,1002.20
2022-12-13T08:12:50.244Z,1002.19
2022-12-13T08:13:50.217Z,1002.20
2022-12-13T08:14:53.115Z,1002.25
2022-12-13T08:15:50.141Z,1002.26
2022-12-13T08:16:50.102Z,1002.27
2022-12-13T08:17:50.025Z,1002.23
2022-12-13T08:18:49.988Z,1002.29
2022-12-13T08:19:49.954Z,1002.31
2022-12-13T08:20:49.904Z,1002.32
2022-12-13T08:21:55.341Z,1002.30
2022-12-13T08:22:49.815Z,1002.30
2022-12-13T08:23:49.770Z,1002.27
2022-12-13T08:24:49.741Z,1002.27
2022-12-13T08:25:49.679Z,1002.27
2022-12-13T08:26:49.650Z,1002.30
2022-12-13T08:27:49.596Z,1002.36
2022-12-13T08:28:49.557Z,1002.36
2022-12-13T08:29:49.507Z,1002.38
2022-12-13T08:30:49.469Z,1002.32
2022-12-13T08:31:49.448Z,1002.32
2022-12-13T08:32:49.383Z,1002.31
2022-12-13T08:33:49.337Z,1002.28
2022-12-13T08:34:49.400Z,1002.31
2022-12-13T08:35:49.249Z,1002.27
2022-12-13T08:36:49.208Z,1002.29
2022-12-13T08:37:49.161Z,1002.28
2022-12-13T08:38:49.120Z,1002.27
2022-12-13T08:39:49.080Z,1002.27
2022-12-13T08:40:49.044Z,1002.28
2022-12-13T08:41:48.994Z,1002.31
2022-12-13T08:42:48.951Z,1002.32
2022-12-13T08:43:48.904Z,1002.31
2022-12-13T08:44:48.903Z,1002.33
2022-12-13T08:45:48.819Z,1002.33
2022-12-13T08:46:48.844Z,1002.36
2022-12-13T08:47:48.736Z,1002.37
2022-12-13T08:48:48.729Z,1002.42
2022-12-13T08:49:48.650Z,1002.39
2022-12-13T08:50:48.604Z,1002.38
2022-12-13T08:51:48.565Z,1002.39
2022-12-13T08:52:48.520Z,1002.38
2022-12-13T08:53:48.482Z,1002.38
2022-12-13T08:54:48.433Z,1002.32
2022-12-13T08:55:48.391Z,1002.31
2022-12-13T08:56:48.353Z,1002.34
2022-12-13T08:57:48.310Z,1002.39
2022-12-13T08:58:48.258Z,1002.41
2022-12-13T08:59:48.221Z,1002.43
2022-12-13T09:00:48.231Z,1002.49
2022-12-13T09:01:48.157Z,1002.41
2022-12-13T09:02:48.124Z,1002.47
2022-12-13T09:03:48.047Z,1002.42
2022-12-13T09:04:48.010Z,1002.38
2022-12-13T09:05:47.961Z,1002.38
2022-12-13T09:06:47.926Z,1002.35
2022-12-13T09:07:47.880Z,1002.37
2022-12-13T09:08:51.672Z,1002.35
2022-12-13T09:09:47.790Z,1002.32
2022-12-13T09:10:47.752Z,1002.37
2022-12-13T09:11:47.704Z,1002.35
2022-12-13T09:12:47.667Z,1002.37
2022-12-13T09:13:47.849Z,1002.34
2022-12-13T09:14:47.577Z,1002.41
2022-12-13T09:15:47.553Z,1002.40
2022-12-13T09:16:51.124Z,1002.38
2022-12-13T09:17:52.335Z,1002.37
2022-12-13T09:18:47.404Z,1002.38
2022-12-13T09:19:47.506Z,1002.35
2022-12-13T09:20:47.359Z,1002.40
2022-12-13T09:21:47.279Z,1002.42
2022-12-13T09:22:47.235Z,1002.46
2022-12-13T09:23:47.190Z,1002.52
2022-12-13T09:24:50.159Z,1002.49
2022-12-13T09:25:52.601Z,1002.47
2022-12-13T09:26:47.065Z,1002.46
2022-12-13T09:27:47.019Z,1002.49
2022-12-13T09:28:46.976Z,1002.49
2022-12-13T09:29:46.935Z,1002.50
2022-12-13T09:30:46.892Z,1002.53
2022-12-13T09:31:52.633Z,1002.56
2022-12-13T09:32:46.813Z,1002.55
2022-12-13T09:33:46.774Z,1002.58
2022-12-13T09:34:46.788Z,1002.58
2022-12-13T09:35:46.708Z,1002.60
2022-12-13T09:36:46.640Z,1002.61
2022-12-13T09:37:46.601Z,1002.52
2022-12-13T09:38:46.552Z,1002.53
2022-12-13T09:39:46.511Z,1002.51
2022-12-13T09:40:46.469Z,1002.48
2022-12-13T09:41:46.424Z,1002.48
2022-12-13T09:42:46.381Z,1002.44
2022-12-13T09:43:46.755Z,1002.47
2022-12-13T09:44:51.634Z,1002.48
2022-12-13T09:45:46.303Z,1002.48
2022-12-13T09:46:46.334Z,1002.48
2022-12-13T09:47:46.998Z,1002.47
2022-12-13T09:48:48.590Z,1002.47
2022-12-13T09:49:52.051Z,1002.48
2022-12-13T09:50:58.346Z,1002.51
2022-12-13T09:51:50.795Z,1002.50
2022-12-13T09:52:45.961Z,1002.52
2022-12-13T09:53:45.943Z,1002.56
2022-12-13T09:54:48.573Z,1002.55
2022-12-13T09:55:45.837Z,1002.60
2022-12-13T09:56:45.797Z,1002.61
2022-12-13T09:57:45.799Z,1002.60
2022-12-13T09:58:45.705Z,1002.56
2022-12-13T09:59:45.689Z,1002.59
2022-12-13T10:00:45.665Z,1002.58
2022-12-13T10:01:45.630Z,1002.52
2022-12-13T10:02:45.548Z,1002.50
2022-12-13T10:03:45.501Z,1002.45
2022-12-13T10:04:45.450Z,1002.45
2022-12-13T10:05:45.409Z,1002.36
2022-12-13T10:06:45.376Z,1002.40
2022-12-13T10:07:45.333Z,1002.39
2022-12-13T10:08:45.290Z,1002.36
2022-12-13T10:09:45.247Z,1002.38
2022-12-13T10:10:45.201Z,1002.38
2022-12-13T10:11:50.192Z,1002.34
2022-12-13T10:12:45.118Z,1002.33
2022-12-13T10:13:45.075Z,1002.35
2022-12-13T10:14:45.038Z,1002.34
2022-12-13T10:15:44.993Z,1002.32
2022-12-13T10:16:45.006Z,1002.32
2022-12-13T10:17:48.564Z,1002.34
2022-12-13T10:18:44.877Z,1002.30
2022-12-13T10:19:44.826Z,1002.28
2022-12-13T10:20:44.786Z,1002.27
2022-12-13T10:21:44.743Z,1002.27
2022-12-13T10:23:01.577Z,1002.28
2022-12-13T10:24:22.799Z,1002.30
2022-12-13T10:24:44.624Z,1002.28
2022-12-13T10:25:44.622Z,1002.27
2022-12-13T10:26:44.573Z,1002.22
2022-12-13T10:27:44.501Z,1002.25
2022-12-13T10:28:44.453Z,1002.15
2022-12-13T10:29:44.418Z,1002.17
2022-12-13T10:30:46.258Z,1002.15
2022-12-13T10:31:44.376Z,1002.13
2022-12-13T10:32:44.292Z,1002.12
2022-12-13T10:33:44.248Z,1002.15
2022-12-13T10:34:44.212Z,1002.18
2022-12-13T10:35:44.168Z,1002.17
2022-12-13T10:36:44.130Z,1002.19
2022-12-13T10:37:44.089Z,1002.20
2022-12-13T10:38:44.131Z,1002.10
2022-12-13T10:39:44.036Z,1002.14
2022-12-13T10:40:43.962Z,1002.07
2022-12-13T10:41:43.919Z,1002.06
2022-12-13T10:42:43.880Z,1002.13
2022-12-13T10:43:43.835Z,1002.09
2022-12-13T10:44:43.796Z,1002.14
2022-12-13T10:45:43.796Z,1002.14
2022-12-13T10:46:43.716Z,1002.07
2022-12-13T10:47:43.674Z,1002.02
2022-12-13T10:48:43.639Z,1002.01
2022-12-13T10:49:43.592Z,1002.02
2022-12-13T10:50:43.626Z,1002.01
2022-12-13T10:51:43.514Z,1002.00
2022-12-13T10:52:43.974Z,1001.98
2022-12-13T10:53:47.700Z,1002.00
2022-12-13T10:54:48.563Z,1001.91
2022-12-13T10:55:43.359Z,1001.95
2022-12-13T10:56:43.309Z,1001.95
2022-12-13T10:57:43.268Z,1001.97
2022-12-13T10:58:43.237Z,1001.90
2022-12-13T10:59:43.191Z,1001.92
2022-12-13T11:00:43.147Z,1001.90
2022-12-13T11:01:43.117Z,1001.92
2022-12-13T11:02:43.134Z,1001.88
2022-12-13T11:03:43.025Z,1001.92
2022-12-13T11:04:42.989Z,1001.93
2022-12-13T11:05:42.952Z,1001.96
2022-12-13T11:06:43.301Z,1001.95
2022-12-13T11:07:42.869Z,1001.89
2022-12-13T11:08:42.829Z,1001.89
2022-12-13T11:09:42.782Z,1001.89
2022-12-13T11:10:42.748Z,1001.84
2022-12-13T11:11:42.713Z,1001.81
2022-12-13T11:12:42.668Z,1001.76
2022-12-13T11:13:42.629Z,1001.78
2022-12-13T11:14:43.703Z,1001.78
2022-12-13T11:15:42.545Z,1001.76
2022-12-13T11:16:42.558Z,1001.76
2022-12-13T11:17:42.472Z,1001.75
2022-12-13T11:18:42.433Z,1001.75
2022-12-13T11:19:42.431Z,1001.68
2022-12-13T11:20:42.348Z,1001.67
2022-12-13T11:21:42.312Z,1001.65
2022-12-13T11:22:42.267Z,1001.66
2022-12-13T11:23:42.228Z,1001.62
2022-12-13T11:24:42.223Z,1001.50
2022-12-13T11:25:42.146Z,1001.55
2022-12-13T11:26:42.106Z,1001.49
2022-12-13T11:27:42.067Z,1001.50
2022-12-13T11:28:42.401Z,1001.53
2022-12-13T11:29:42.965Z,1001.54
2022-12-13T11:30:41.951Z,1001.52
2022-12-13T11:31:41.985Z,1001.53
2022-12-13T11:32:41.877Z,1001.50
2022-12-13T11:33:48.346Z,1001.45
2022-12-13T11:34:41.786Z,1001.48
2022-12-13T11:35:41.756Z,1001.47
2022-12-13T11:36:41.714Z,1001.47
2022-12-13T11:37:41.668Z,1001.50
2022-12-13T11:38:41.638Z,1001.44
2022-12-13T11:39:41.591Z,1001.51
2022-12-13T11:40:41.547Z,1001.47
2022-12-13T11:41:41.511Z,1001.51
2022-12-13T11:42:41.482Z,1001.45
2022-12-13T11:43:41.434Z,1001.42
2022-12-13T11:44:45.974Z,1001.38
2022-12-13T11:45:41.410Z,1001.34
2022-12-13T11:46:41.310Z,1001.32
2022-12-13T11:47:41.271Z,1001.38
2022-12-13T11:48:41.233Z,1001.35
2022-12-13T11:49:41.214Z,1001.37
2022-12-13T11:50:41.153Z,1001.33
2022-12-13T11:51:41.117Z,1001.35
2022-12-13T11:52:41.074Z,1001.32
2022-12-13T11:53:41.036Z,1001.34
2022-12-13T11:54:40.993Z,1001.32
2022-12-13T11:55:40.958Z,1001.32
2022-12-13T11:56:40.914Z,1001.28
2022-12-13T11:57:40.875Z,1001.24
2022-12-13T11:59:40.847Z,1001.23
2022-12-13T12:00:40.759Z,1001.23
2022-12-13T12:01:40.725Z,1001.17
2022-12-13T12:02:40.739Z,1001.19
2022-12-13T12:03:40.670Z,1001.15
2022-12-13T12:04:40.595Z,1001.22
2022-12-13T12:05:40.562Z,1001.18